sensor_id;sensor_type;location;lat;lon;timestamp;P1;durP1;ratioP1;P2;durP2;ratioP2
51146;SDS011;37207;53.060;18.726;2022-12-07T00:03:47;11.00;;;10.20;;
51146;SDS011;37207;53.060;18.726;2022-12-07T00:06:16;7.30;;;6.70;;
51146;SDS011;37207;53.060;18.726;2022-12-07T00:08:43;11.30;;;10.30;;
51146;SDS011;37207;53.060;18.726;2022-12-07T00:11:12;10.50;;;9.70;;
51146;SDS011;37207;53.060;18.726;2022-12-07T00:13:40;11.70;;;10.70;;
51146;SDS011;37207;53.060;18.726;2022-12-07T00:16:12;13.50;;;11.80;;
51146;SDS011;37207;53.060;18.726;2022-12-07T00:18:43;11.70;;;10.70;;
51146;SDS011;37207;53.060;18.726;2022-12-07T00:23:39;11.10;;;10.20;;
51146;SDS011;37207;53.060;18.726;2022-12-07T00:26:14;11.80;;;10.70;;
51146;SDS011;37207;53.060;18.726;2022-12-07T00:28:41;9.80;;;9.10;;
51146;SDS011;37207;53.060;18.726;2022-12-07T00:31:12;9.00;;;8.30;;
51146;SDS011;37207;53.060;18.726;2022-12-07T00:33:40;9.60;;;8.70;;
51146;SDS011;37207;53.060;18.726;2022-12-07T00:36:07;9.70;;;9.00;;
51146;SDS011;37207;53.060;18.726;2022-12-07T00:38:36;10.80;;;9.40;;
51146;SDS011;37207;53.060;18.726;2022-12-07T00:41:05;14.30;;;8.30;;
51146;SDS011;37207;53.060;18.726;2022-12-07T00:43:43;12.70;;;9.40;;
51146;SDS011;37207;53.060;18.726;2022-12-07T00:46:11;14.60;;;13.40;;
51146;SDS011;37207;53.060;18.726;2022-12-07T00:48:38;13.70;;;12.80;;
51146;SDS011;37207;53.060;18.726;2022-12-07T00:51:05;13.00;;;12.20;;
51146;SDS011;37207;53.060;18.726;2022-12-07T00:53:36;11.50;;;10.80;;
51146;SDS011;37207;53.060;18.726;2022-12-07T00:56:07;13.60;;;12.70;;
51146;SDS011;37207;53.060;18.726;2022-12-07T00:58:34;19.30;;;18.00;;
51146;SDS011;37207;53.060;18.726;2022-12-07T01:01:01;20.70;;;19.20;;
51146;SDS011;37207;53.060;18.726;2022-12-07T01:03:29;11.30;;;10.10;;
51146;SDS011;37207;53.060;18.726;2022-12-07T01:05:56;15.00;;;14.10;;
51146;SDS011;37207;53.060;18.726;2022-12-07T01:08:24;13.20;;;12.40;;
51146;SDS011;37207;53.060;18.726;2022-12-07T01:11:02;14.10;;;13.10;;
51146;SDS011;37207;53.060;18.726;2022-12-07T01:13:31;20.50;;;12.90;;
51146;SDS011;37207;53.060;18.726;2022-12-07T01:15:59;23.20;;;15.80;;
51146;SDS011;37207;53.060;18.726;2022-12-07T01:21:02;15.90;;;14.30;;
51146;SDS011;37207;53.060;18.726;2022-12-07T01:23:31;20.90;;;18.20;;
51146;SDS011;37207;53.060;18.726;2022-12-07T01:26:00;30.00;;;23.50;;
51146;SDS011;37207;53.060;18.726;2022-12-07T01:28:29;22.50;;;17.90;;
51146;SDS011;37207;53.060;18.726;2022-12-07T01:33:23;12.50;;;11.60;;
51146;SDS011;37207;53.060;18.726;2022-12-07T01:35:50;10.10;;;9.40;;
51146;SDS011;37207;53.060;18.726;2022-12-07T01:38:16;9.40;;;8.80;;
51146;SDS011;37207;53.060;18.726;2022-12-07T01:40:43;10.30;;;9.60;;
51146;SDS011;37207;53.060;18.726;2022-12-07T01:43:16;15.00;;;14.00;;
51146;SDS011;37207;53.060;18.726;2022-12-07T01:45:45;20.90;;;19.20;;
51146;SDS011;37207;53.060;18.726;2022-12-07T01:48:12;24.40;;;22.40;;
51146;SDS011;37207;53.060;18.726;2022-12-07T01:50:43;24.60;;;22.30;;
51146;SDS011;37207;53.060;18.726;2022-12-07T01:53:11;14.40;;;12.20;;
51146;SDS011;37207;53.060;18.726;2022-12-07T01:55:40;13.40;;;12.10;;
51146;SDS011;37207;53.060;18.726;2022-12-07T01:58:09;22.00;;;20.10;;
51146;SDS011;37207;53.060;18.726;2022-12-07T02:00:38;22.60;;;20.70;;
51146;SDS011;37207;53.060;18.726;2022-12-07T02:05:45;30.30;;;19.60;;
51146;SDS011;37207;53.060;18.726;2022-12-07T02:08:14;25.10;;;23.00;;
51146;SDS011;37207;53.060;18.726;2022-12-07T02:10:42;21.10;;;15.90;;
51146;SDS011;37207;53.060;18.726;2022-12-07T02:13:11;26.00;;;23.40;;
51146;SDS011;37207;53.060;18.726;2022-12-07T02:18:44;23.40;;;21.30;;
51146;SDS011;37207;53.060;18.726;2022-12-07T02:21:30;20.40;;;18.90;;
51146;SDS011;37207;53.060;18.726;2022-12-07T02:29:49;19.60;;;18.00;;
51146;SDS011;37207;53.060;18.726;2022-12-07T02:35:21;20.60;;;19.10;;
51146;SDS011;37207;53.060;18.726;2022-12-07T02:40:36;16.80;;;15.70;;
51146;SDS011;37207;53.060;18.726;2022-12-07T02:43:09;17.10;;;15.90;;
51146;SDS011;37207;53.060;18.726;2022-12-07T02:45:46;17.80;;;16.50;;
51146;SDS011;37207;53.060;18.726;2022-12-07T02:48:15;11.70;;;9.80;;
51146;SDS011;37207;53.060;18.726;2022-12-07T02:50:50;15.00;;;14.10;;
51146;SDS011;37207;53.060;18.726;2022-12-07T02:53:31;17.20;;;15.90;;
51146;SDS011;37207;53.060;18.726;2022-12-07T03:16:15;9.90;;;8.90;;
51146;SDS011;37207;53.060;18.726;2022-12-07T03:18:52;9.80;;;9.10;;
51146;SDS011;37207;53.060;18.726;2022-12-07T03:21:27;8.10;;;7.60;;
51146;SDS011;37207;53.060;18.726;2022-12-07T03:23:59;9.90;;;9.30;;
51146;SDS011;37207;53.060;18.726;2022-12-07T03:26:31;13.30;;;12.30;;
51146;SDS011;37207;53.060;18.726;2022-12-07T03:29:06;11.70;;;10.90;;
51146;SDS011;37207;53.060;18.726;2022-12-07T03:31:40;15.40;;;14.20;;
51146;SDS011;37207;53.060;18.726;2022-12-07T03:34:14;17.00;;;15.90;;
51146;SDS011;37207;53.060;18.726;2022-12-07T03:39:37;17.50;;;16.30;;
51146;SDS011;37207;53.060;18.726;2022-12-07T03:42:10;13.20;;;12.30;;
51146;SDS011;37207;53.060;18.726;2022-12-07T03:44:38;9.90;;;9.30;;
51146;SDS011;37207;53.060;18.726;2022-12-07T03:47:06;6.30;;;5.90;;
51146;SDS011;37207;53.060;18.726;2022-12-07T03:52:24;6.20;;;5.80;;
51146;SDS011;37207;53.060;18.726;2022-12-07T03:55:20;7.20;;;6.70;;
51146;SDS011;37207;53.060;18.726;2022-12-07T03:57:53;6.00;;;5.60;;
51146;SDS011;37207;53.060;18.726;2022-12-07T04:00:23;7.00;;;6.50;;
51146;SDS011;37207;53.060;18.726;2022-12-07T04:02:53;6.90;;;6.50;;
51146;SDS011;37207;53.060;18.726;2022-12-07T04:05:21;7.20;;;6.70;;
51146;SDS011;37207;53.060;18.726;2022-12-07T04:07:47;8.50;;;7.20;;
51146;SDS011;37207;53.060;18.726;2022-12-07T04:10:14;7.00;;;6.40;;
51146;SDS011;37207;53.060;18.726;2022-12-07T04:12:40;10.20;;;7.50;;
51146;SDS011;37207;53.060;18.726;2022-12-07T04:15:07;8.40;;;7.70;;
51146;SDS011;37207;53.060;18.726;2022-12-07T04:17:35;8.40;;;7.90;;
51146;SDS011;37207;53.060;18.726;2022-12-07T04:20:02;7.80;;;7.30;;
51146;SDS011;37207;53.060;18.726;2022-12-07T04:22:30;6.40;;;5.90;;
51146;SDS011;37207;53.060;18.726;2022-12-07T04:24:57;9.50;;;8.80;;
51146;SDS011;37207;53.060;18.726;2022-12-07T04:27:23;10.60;;;9.80;;
51146;SDS011;37207;53.060;18.726;2022-12-07T04:29:50;11.50;;;10.70;;
51146;SDS011;37207;53.060;18.726;2022-12-07T04:32:16;10.70;;;10.00;;
51146;SDS011;37207;53.060;18.726;2022-12-07T04:34:43;12.20;;;11.50;;
51146;SDS011;37207;53.060;18.726;2022-12-07T04:37:09;11.60;;;10.80;;
51146;SDS011;37207;53.060;18.726;2022-12-07T04:39:36;12.90;;;12.10;;
51146;SDS011;37207;53.060;18.726;2022-12-07T04:42:03;13.30;;;12.20;;
51146;SDS011;37207;53.060;18.726;2022-12-07T04:44:30;12.30;;;11.50;;
51146;SDS011;37207;53.060;18.726;2022-12-07T04:46:57;12.30;;;11.60;;
51146;SDS011;37207;53.060;18.726;2022-12-07T04:49:24;13.00;;;12.20;;
51146;SDS011;37207;53.060;18.726;2022-12-07T04:51:51;12.70;;;12.00;;
51146;SDS011;37207;53.060;18.726;2022-12-07T04:54:18;12.50;;;11.80;;
51146;SDS011;37207;53.060;18.726;2022-12-07T04:56:44;13.50;;;12.70;;
51146;SDS011;37207;53.060;18.726;2022-12-07T04:59:11;14.40;;;13.40;;
51146;SDS011;37207;53.060;18.726;2022-12-07T05:01:39;18.90;;;17.60;;
51146;SDS011;37207;53.060;18.726;2022-12-07T05:04:05;17.00;;;15.80;;
51146;SDS011;37207;53.060;18.726;2022-12-07T05:06:32;15.40;;;14.50;;
51146;SDS011;37207;53.060;18.726;2022-12-07T05:08:58;14.60;;;13.80;;
51146;SDS011;37207;53.060;18.726;2022-12-07T05:11:25;14.60;;;13.80;;
51146;SDS011;37207;53.060;18.726;2022-12-07T05:16:44;14.00;;;13.10;;
51146;SDS011;37207;53.060;18.726;2022-12-07T05:19:13;8.90;;;7.80;;
51146;SDS011;37207;53.060;18.726;2022-12-07T05:21:39;13.00;;;12.30;;
51146;SDS011;37207;53.060;18.726;2022-12-07T05:24:07;12.90;;;12.20;;
51146;SDS011;37207;53.060;18.726;2022-12-07T05:26:36;12.90;;;12.10;;
51146;SDS011;37207;53.060;18.726;2022-12-07T05:29:02;12.00;;;11.40;;
51146;SDS011;37207;53.060;18.726;2022-12-07T05:31:30;10.60;;;10.10;;
51146;SDS011;37207;53.060;18.726;2022-12-07T05:33:56;9.30;;;8.60;;
51146;SDS011;37207;53.060;18.726;2022-12-07T05:36:23;10.20;;;9.70;;
51146;SDS011;37207;53.060;18.726;2022-12-07T05:38:50;9.00;;;8.30;;
51146;SDS011;37207;53.060;18.726;2022-12-07T05:41:17;8.70;;;8.00;;
51146;SDS011;37207;53.060;18.726;2022-12-07T05:44:04;8.20;;;7.80;;
51146;SDS011;37207;53.060;18.726;2022-12-07T05:46:31;8.10;;;7.60;;
51146;SDS011;37207;53.060;18.726;2022-12-07T05:48:58;9.20;;;8.60;;
51146;SDS011;37207;53.060;18.726;2022-12-07T05:51:25;8.90;;;8.40;;
51146;SDS011;37207;53.060;18.726;2022-12-07T05:53:51;8.40;;;7.90;;
51146;SDS011;37207;53.060;18.726;2022-12-07T05:56:18;8.00;;;7.50;;
51146;SDS011;37207;53.060;18.726;2022-12-07T05:58:45;8.90;;;8.10;;
51146;SDS011;37207;53.060;18.726;2022-12-07T06:01:30;8.50;;;7.60;;
51146;SDS011;37207;53.060;18.726;2022-12-07T06:03:56;9.50;;;8.90;;
51146;SDS011;37207;53.060;18.726;2022-12-07T06:06:23;10.50;;;9.70;;
51146;SDS011;37207;53.060;18.726;2022-12-07T06:08:49;9.80;;;9.20;;
51146;SDS011;37207;53.060;18.726;2022-12-07T06:11:16;7.30;;;6.90;;
51146;SDS011;37207;53.060;18.726;2022-12-07T06:14:01;9.00;;;8.50;;
51146;SDS011;37207;53.060;18.726;2022-12-07T06:16:27;10.60;;;9.80;;
51146;SDS011;37207;53.060;18.726;2022-12-07T06:18:54;21.30;;;18.80;;
51146;SDS011;37207;53.060;18.726;2022-12-07T06:21:21;7.50;;;7.00;;
51146;SDS011;37207;53.060;18.726;2022-12-07T06:23:47;10.00;;;9.30;;
51146;SDS011;37207;53.060;18.726;2022-12-07T06:26:14;11.20;;;10.40;;
51146;SDS011;37207;53.060;18.726;2022-12-07T06:28:41;38.80;;;24.70;;
51146;SDS011;37207;53.060;18.726;2022-12-07T06:31:07;9.90;;;9.30;;
51146;SDS011;37207;53.060;18.726;2022-12-07T06:33:34;7.60;;;7.10;;
51146;SDS011;37207;53.060;18.726;2022-12-07T06:36:01;14.30;;;12.90;;
51146;SDS011;37207;53.060;18.726;2022-12-07T06:38:27;7.30;;;6.90;;
51146;SDS011;37207;53.060;18.726;2022-12-07T06:40:54;8.50;;;7.70;;
51146;SDS011;37207;53.060;18.726;2022-12-07T06:43:20;7.90;;;7.40;;
51146;SDS011;37207;53.060;18.726;2022-12-07T06:45:47;8.00;;;7.50;;
51146;SDS011;37207;53.060;18.726;2022-12-07T06:48:14;23.90;;;22.10;;
51146;SDS011;37207;53.060;18.726;2022-12-07T06:50:40;45.00;;;40.60;;
51146;SDS011;37207;53.060;18.726;2022-12-07T06:53:07;20.40;;;19.00;;
51146;SDS011;37207;53.060;18.726;2022-12-07T06:55:34;13.70;;;12.60;;
51146;SDS011;37207;53.060;18.726;2022-12-07T06:58:00;23.70;;;17.20;;
51146;SDS011;37207;53.060;18.726;2022-12-07T07:00:28;25.10;;;15.50;;
51146;SDS011;37207;53.060;18.726;2022-12-07T07:02:56;17.00;;;13.90;;
51146;SDS011;37207;53.060;18.726;2022-12-07T07:05:22;30.20;;;18.40;;
51146;SDS011;37207;53.060;18.726;2022-12-07T07:07:49;17.50;;;13.80;;
51146;SDS011;37207;53.060;18.726;2022-12-07T07:10:16;16.40;;;14.10;;
51146;SDS011;37207;53.060;18.726;2022-12-07T07:12:43;13.40;;;12.00;;
51146;SDS011;37207;53.060;18.726;2022-12-07T07:15:09;15.90;;;13.40;;
51146;SDS011;37207;53.060;18.726;2022-12-07T07:17:37;10.50;;;6.60;;
51146;SDS011;37207;53.060;18.726;2022-12-07T07:20:04;14.10;;;9.20;;
51146;SDS011;37207;53.060;18.726;2022-12-07T07:22:31;12.20;;;11.00;;
51146;SDS011;37207;53.060;18.726;2022-12-07T07:24:58;13.70;;;12.50;;
51146;SDS011;37207;53.060;18.726;2022-12-07T07:27:24;21.20;;;14.00;;
51146;SDS011;37207;53.060;18.726;2022-12-07T07:29:51;13.00;;;11.60;;
51146;SDS011;37207;53.060;18.726;2022-12-07T07:32:17;14.20;;;12.90;;
51146;SDS011;37207;53.060;18.726;2022-12-07T07:34:44;16.70;;;14.90;;
51146;SDS011;37207;53.060;18.726;2022-12-07T07:37:10;27.90;;;21.40;;
51146;SDS011;37207;53.060;18.726;2022-12-07T07:39:38;17.30;;;11.50;;
51146;SDS011;37207;53.060;18.726;2022-12-07T07:42:05;16.40;;;14.70;;
51146;SDS011;37207;53.060;18.726;2022-12-07T07:44:33;29.40;;;18.80;;
51146;SDS011;37207;53.060;18.726;2022-12-07T07:47:00;31.90;;;23.40;;
51146;SDS011;37207;53.060;18.726;2022-12-07T07:49:27;17.70;;;15.80;;
51146;SDS011;37207;53.060;18.726;2022-12-07T07:51:53;12.80;;;11.50;;
51146;SDS011;37207;53.060;18.726;2022-12-07T07:54:20;15.10;;;13.50;;
51146;SDS011;37207;53.060;18.726;2022-12-07T07:56:47;16.80;;;14.80;;
51146;SDS011;37207;53.060;18.726;2022-12-07T07:59:14;19.60;;;17.80;;
51146;SDS011;37207;53.060;18.726;2022-12-07T08:01:41;15.90;;;14.30;;
51146;SDS011;37207;53.060;18.726;2022-12-07T08:04:08;25.20;;;17.70;;
51146;SDS011;37207;53.060;18.726;2022-12-07T08:06:34;33.30;;;22.30;;
51146;SDS011;37207;53.060;18.726;2022-12-07T08:09:01;22.10;;;18.20;;
51146;SDS011;37207;53.060;18.726;2022-12-07T08:11:28;37.90;;;27.90;;
51146;SDS011;37207;53.060;18.726;2022-12-07T08:13:55;27.30;;;18.50;;
51146;SDS011;37207;53.060;18.726;2022-12-07T08:16:21;19.60;;;17.60;;
51146;SDS011;37207;53.060;18.726;2022-12-07T08:18:48;23.30;;;18.00;;
51146;SDS011;37207;53.060;18.726;2022-12-07T08:21:14;16.80;;;14.30;;
51146;SDS011;37207;53.060;18.726;2022-12-07T08:23:42;26.70;;;18.00;;
51146;SDS011;37207;53.060;18.726;2022-12-07T08:26:09;23.30;;;16.50;;
51146;SDS011;37207;53.060;18.726;2022-12-07T08:28:38;22.10;;;16.40;;
51146;SDS011;37207;53.060;18.726;2022-12-07T08:31:06;30.70;;;21.30;;
51146;SDS011;37207;53.060;18.726;2022-12-07T08:33:44;18.90;;;16.10;;
51146;SDS011;37207;53.060;18.726;2022-12-07T08:36:12;20.50;;;17.00;;
51146;SDS011;37207;53.060;18.726;2022-12-07T08:38:40;18.50;;;16.60;;
51146;SDS011;37207;53.060;18.726;2022-12-07T08:41:07;26.60;;;18.20;;
51146;SDS011;37207;53.060;18.726;2022-12-07T08:43:35;21.00;;;17.10;;
51146;SDS011;37207;53.060;18.726;2022-12-07T08:46:10;21.90;;;19.60;;
51146;SDS011;37207;53.060;18.726;2022-12-07T08:48:54;15.40;;;14.10;;
51146;SDS011;37207;53.060;18.726;2022-12-07T08:51:25;18.00;;;14.70;;
51146;SDS011;37207;53.060;18.726;2022-12-07T08:53:51;15.60;;;14.20;;
51146;SDS011;37207;53.060;18.726;2022-12-07T08:56:19;32.10;;;25.60;;
51146;SDS011;37207;53.060;18.726;2022-12-07T08:58:47;55.80;;;35.50;;
51146;SDS011;37207;53.060;18.726;2022-12-07T09:01:14;24.10;;;21.80;;
51146;SDS011;37207;53.060;18.726;2022-12-07T09:03:41;14.70;;;13.50;;
51146;SDS011;37207;53.060;18.726;2022-12-07T09:06:07;17.00;;;15.50;;
51146;SDS011;37207;53.060;18.726;2022-12-07T09:08:35;13.40;;;12.50;;
51146;SDS011;37207;53.060;18.726;2022-12-07T09:11:05;14.20;;;12.90;;
51146;SDS011;37207;53.060;18.726;2022-12-07T09:13:32;15.40;;;13.90;;
51146;SDS011;37207;53.060;18.726;2022-12-07T09:15:58;19.50;;;17.70;;
51146;SDS011;37207;53.060;18.726;2022-12-07T09:18:25;43.40;;;38.40;;
51146;SDS011;37207;53.060;18.726;2022-12-07T09:20:51;25.30;;;22.00;;
51146;SDS011;37207;53.060;18.726;2022-12-07T09:23:18;19.60;;;17.70;;
51146;SDS011;37207;53.060;18.726;2022-12-07T09:25:44;16.50;;;15.10;;
51146;SDS011;37207;53.060;18.726;2022-12-07T09:28:11;14.00;;;12.40;;
51146;SDS011;37207;53.060;18.726;2022-12-07T09:30:38;13.60;;;12.70;;
51146;SDS011;37207;53.060;18.726;2022-12-07T09:33:04;15.20;;;14.00;;
51146;SDS011;37207;53.060;18.726;2022-12-07T09:35:31;15.80;;;14.70;;
51146;SDS011;37207;53.060;18.726;2022-12-07T09:37:57;16.70;;;15.20;;
51146;SDS011;37207;53.060;18.726;2022-12-07T09:40:24;19.50;;;17.60;;
51146;SDS011;37207;53.060;18.726;2022-12-07T09:42:51;21.00;;;19.00;;
51146;SDS011;37207;53.060;18.726;2022-12-07T09:45:27;17.40;;;15.90;;
51146;SDS011;37207;53.060;18.726;2022-12-07T09:48:04;21.60;;;19.60;;
51146;SDS011;37207;53.060;18.726;2022-12-07T09:50:37;17.30;;;15.90;;
51146;SDS011;37207;53.060;18.726;2022-12-07T09:53:10;18.20;;;16.90;;
51146;SDS011;37207;53.060;18.726;2022-12-07T09:55:41;24.50;;;22.20;;
51146;SDS011;37207;53.060;18.726;2022-12-07T09:58:18;17.70;;;15.90;;
51146;SDS011;37207;53.060;18.726;2022-12-07T10:00:51;20.30;;;18.70;;
51146;SDS011;37207;53.060;18.726;2022-12-07T10:03:22;20.10;;;18.60;;
51146;SDS011;37207;53.060;18.726;2022-12-07T10:05:50;17.80;;;16.20;;
51146;SDS011;37207;53.060;18.726;2022-12-07T10:08:18;22.50;;;20.80;;
51146;SDS011;37207;53.060;18.726;2022-12-07T10:10:45;20.90;;;19.10;;
51146;SDS011;37207;53.060;18.726;2022-12-07T10:13:20;21.20;;;19.30;;
51146;SDS011;37207;53.060;18.726;2022-12-07T10:16:04;25.50;;;20.80;;
51146;SDS011;37207;53.060;18.726;2022-12-07T10:18:36;25.80;;;23.00;;
51146;SDS011;37207;53.060;18.726;2022-12-07T10:21:17;36.30;;;28.10;;
51146;SDS011;37207;53.060;18.726;2022-12-07T10:29:24;50.30;;;34.40;;
51146;SDS011;37207;53.060;18.726;2022-12-07T10:32:21;51.30;;;33.50;;
51146;SDS011;37207;53.060;18.726;2022-12-07T10:37:48;24.90;;;21.70;;
51146;SDS011;37207;53.060;18.726;2022-12-07T10:40:23;30.40;;;25.50;;
51146;SDS011;37207;53.060;18.726;2022-12-07T10:43:02;41.00;;;29.20;;
51146;SDS011;37207;53.060;18.726;2022-12-07T10:45:29;37.20;;;27.30;;
51146;SDS011;37207;53.060;18.726;2022-12-07T10:47:59;50.40;;;35.10;;
51146;SDS011;37207;53.060;18.726;2022-12-07T10:53:53;32.50;;;28.80;;
51146;SDS011;37207;53.060;18.726;2022-12-07T10:56:21;27.20;;;24.60;;
51146;SDS011;37207;53.060;18.726;2022-12-07T11:01:42;65.30;;;50.00;;
51146;SDS011;37207;53.060;18.726;2022-12-07T11:04:24;36.30;;;30.80;;
51146;SDS011;37207;53.060;18.726;2022-12-07T11:18:49;26.10;;;23.40;;
51146;SDS011;37207;53.060;18.726;2022-12-07T11:24:17;17.50;;;16.30;;
51146;SDS011;37207;53.060;18.726;2022-12-07T11:32:25;18.00;;;16.80;;
51146;SDS011;37207;53.060;18.726;2022-12-07T11:38:22;18.30;;;13.80;;
51146;SDS011;37207;53.060;18.726;2022-12-07T11:40:59;24.40;;;21.80;;
51146;SDS011;37207;53.060;18.726;2022-12-07T11:46:25;32.20;;;23.40;;
51146;SDS011;37207;53.060;18.726;2022-12-07T11:48:59;24.80;;;20.90;;
51146;SDS011;37207;53.060;18.726;2022-12-07T11:51:35;39.50;;;24.90;;
51146;SDS011;37207;53.060;18.726;2022-12-07T11:54:12;34.60;;;24.40;;
51146;SDS011;37207;53.060;18.726;2022-12-07T12:02:20;31.90;;;26.10;;
51146;SDS011;37207;53.060;18.726;2022-12-07T12:04:54;30.50;;;24.90;;
51146;SDS011;37207;53.060;18.726;2022-12-07T12:07:28;38.80;;;27.50;;
51146;SDS011;37207;53.060;18.726;2022-12-07T12:09:57;40.60;;;31.30;;
51146;SDS011;37207;53.060;18.726;2022-12-07T12:15:38;36.40;;;30.20;;
51146;SDS011;37207;53.060;18.726;2022-12-07T12:18:26;117.30;;;77.00;;
51146;SDS011;37207;53.060;18.726;2022-12-07T12:20:57;41.10;;;32.10;;
51146;SDS011;37207;53.060;18.726;2022-12-07T12:24:04;29.00;;;25.60;;
51146;SDS011;37207;53.060;18.726;2022-12-07T12:26:26;34.00;;;24.80;;
51146;SDS011;37207;53.060;18.726;2022-12-07T12:28:59;35.00;;;30.30;;
51146;SDS011;37207;53.060;18.726;2022-12-07T12:34:29;31.70;;;25.80;;
51146;SDS011;37207;53.060;18.726;2022-12-07T12:42:45;28.90;;;23.70;;
51146;SDS011;37207;53.060;18.726;2022-12-07T12:53:19;24.20;;;21.70;;
51146;SDS011;37207;53.060;18.726;2022-12-07T13:00:48;20.60;;;18.70;;
51146;SDS011;37207;53.060;18.726;2022-12-07T13:03:55;19.30;;;17.90;;
51146;SDS011;37207;53.060;18.726;2022-12-07T13:08:51;22.70;;;20.50;;
51146;SDS011;37207;53.060;18.726;2022-12-07T13:11:32;26.30;;;23.60;;
51146;SDS011;37207;53.060;18.726;2022-12-07T13:20:00;24.10;;;20.70;;
51146;SDS011;37207;53.060;18.726;2022-12-07T13:24:57;32.20;;;28.30;;
51146;SDS011;37207;53.060;18.726;2022-12-07T13:27:31;31.80;;;27.10;;
51146;SDS011;37207;53.060;18.726;2022-12-07T13:29:58;24.30;;;21.50;;
51146;SDS011;37207;53.060;18.726;2022-12-07T13:32:26;33.10;;;27.50;;
51146;SDS011;37207;53.060;18.726;2022-12-07T13:34:54;29.90;;;26.80;;
51146;SDS011;37207;53.060;18.726;2022-12-07T13:37:28;34.40;;;25.20;;
51146;SDS011;37207;53.060;18.726;2022-12-07T13:39:58;40.10;;;29.70;;
51146;SDS011;37207;53.060;18.726;2022-12-07T13:44:57;61.40;;;35.10;;
51146;SDS011;37207;53.060;18.726;2022-12-07T13:47:32;70.50;;;25.10;;
51146;SDS011;37207;53.060;18.726;2022-12-07T13:50:21;64.90;;;35.80;;
51146;SDS011;37207;53.060;18.726;2022-12-07T13:52:58;83.00;;;41.40;;
51146;SDS011;37207;53.060;18.726;2022-12-07T13:55:26;62.10;;;22.40;;
51146;SDS011;37207;53.060;18.726;2022-12-07T13:57:56;49.20;;;29.10;;
51146;SDS011;37207;53.060;18.726;2022-12-07T14:00:24;56.30;;;37.60;;
51146;SDS011;37207;53.060;18.726;2022-12-07T14:05:38;59.50;;;37.50;;
51146;SDS011;37207;53.060;18.726;2022-12-07T14:10:37;56.00;;;35.30;;
51146;SDS011;37207;53.060;18.726;2022-12-07T14:15:51;59.30;;;41.00;;
51146;SDS011;37207;53.060;18.726;2022-12-07T14:18:25;44.30;;;32.10;;
51146;SDS011;37207;53.060;18.726;2022-12-07T14:23:37;41.80;;;32.90;;
51146;SDS011;37207;53.060;18.726;2022-12-07T14:26:15;129.90;;;51.40;;
51146;SDS011;37207;53.060;18.726;2022-12-07T14:28:46;194.60;;;148.10;;
51146;SDS011;37207;53.060;18.726;2022-12-07T14:31:14;52.50;;;41.40;;
51146;SDS011;37207;53.060;18.726;2022-12-07T14:33:43;35.10;;;29.70;;
51146;SDS011;37207;53.060;18.726;2022-12-07T14:36:11;31.00;;;25.50;;
51146;SDS011;37207;53.060;18.726;2022-12-07T14:38:39;33.90;;;20.10;;
51146;SDS011;37207;53.060;18.726;2022-12-07T14:41:09;26.60;;;24.10;;
51146;SDS011;37207;53.060;18.726;2022-12-07T14:43:59;20.80;;;19.00;;
51146;SDS011;37207;53.060;18.726;2022-12-07T14:46:26;25.90;;;23.40;;
51146;SDS011;37207;53.060;18.726;2022-12-07T14:48:53;23.60;;;21.30;;
51146;SDS011;37207;53.060;18.726;2022-12-07T14:51:19;26.50;;;23.70;;
51146;SDS011;37207;53.060;18.726;2022-12-07T14:53:48;23.10;;;20.80;;
51146;SDS011;37207;53.060;18.726;2022-12-07T14:56:17;26.10;;;23.40;;
51146;SDS011;37207;53.060;18.726;2022-12-07T14:58:44;27.20;;;24.10;;
51146;SDS011;37207;53.060;18.726;2022-12-07T15:01:10;27.30;;;20.50;;
51146;SDS011;37207;53.060;18.726;2022-12-07T15:03:37;30.80;;;23.90;;
51146;SDS011;37207;53.060;18.726;2022-12-07T15:06:05;25.30;;;22.60;;
51146;SDS011;37207;53.060;18.726;2022-12-07T15:08:33;61.90;;;26.00;;
51146;SDS011;37207;53.060;18.726;2022-12-07T15:11:00;40.50;;;23.20;;
51146;SDS011;37207;53.060;18.726;2022-12-07T15:13:26;30.00;;;26.70;;
51146;SDS011;37207;53.060;18.726;2022-12-07T15:16:13;31.60;;;24.40;;
51146;SDS011;37207;53.060;18.726;2022-12-07T15:18:43;20.90;;;18.90;;
51146;SDS011;37207;53.060;18.726;2022-12-07T15:21:13;19.90;;;16.40;;
51146;SDS011;37207;53.060;18.726;2022-12-07T15:23:41;23.40;;;20.90;;
51146;SDS011;37207;53.060;18.726;2022-12-07T15:26:09;22.50;;;20.10;;
51146;SDS011;37207;53.060;18.726;2022-12-07T15:28:36;24.70;;;14.50;;
51146;SDS011;37207;53.060;18.726;2022-12-07T15:31:03;18.80;;;17.00;;
51146;SDS011;37207;53.060;18.726;2022-12-07T15:33:30;17.10;;;15.50;;
51146;SDS011;37207;53.060;18.726;2022-12-07T15:35:56;17.70;;;16.20;;
51146;SDS011;37207;53.060;18.726;2022-12-07T15:38:25;17.00;;;9.60;;
51146;SDS011;37207;53.060;18.726;2022-12-07T15:40:53;12.30;;;9.80;;
51146;SDS011;37207;53.060;18.726;2022-12-07T15:43:20;13.00;;;12.00;;
51146;SDS011;37207;53.060;18.726;2022-12-07T15:46:05;13.10;;;12.20;;
51146;SDS011;37207;53.060;18.726;2022-12-07T15:48:31;11.90;;;11.00;;
51146;SDS011;37207;53.060;18.726;2022-12-07T15:51:05;13.10;;;12.10;;
51146;SDS011;37207;53.060;18.726;2022-12-07T15:53:33;13.70;;;12.70;;
51146;SDS011;37207;53.060;18.726;2022-12-07T15:56:00;13.90;;;12.80;;
51146;SDS011;37207;53.060;18.726;2022-12-07T15:58:31;14.70;;;13.30;;
51146;SDS011;37207;53.060;18.726;2022-12-07T16:00:58;13.40;;;12.30;;
51146;SDS011;37207;53.060;18.726;2022-12-07T16:03:24;12.50;;;11.40;;
51146;SDS011;37207;53.060;18.726;2022-12-07T16:05:52;27.10;;;9.80;;
51146;SDS011;37207;53.060;18.726;2022-12-07T16:08:19;22.80;;;16.60;;
51146;SDS011;37207;53.060;18.726;2022-12-07T16:10:46;31.80;;;15.80;;
51146;SDS011;37207;53.060;18.726;2022-12-07T16:13:13;34.50;;;16.10;;
51146;SDS011;37207;53.060;18.726;2022-12-07T16:15:40;30.40;;;17.70;;
51146;SDS011;37207;53.060;18.726;2022-12-07T16:18:07;32.90;;;12.50;;
51146;SDS011;37207;53.060;18.726;2022-12-07T16:20:35;194.10;;;80.20;;
51146;SDS011;37207;53.060;18.726;2022-12-07T16:23:01;76.60;;;51.60;;
51146;SDS011;37207;53.060;18.726;2022-12-07T16:25:28;72.60;;;50.40;;
51146;SDS011;37207;53.060;18.726;2022-12-07T16:27:55;32.80;;;24.60;;
51146;SDS011;37207;53.060;18.726;2022-12-07T16:30:21;29.50;;;18.90;;
51146;SDS011;37207;53.060;18.726;2022-12-07T16:32:48;28.70;;;18.00;;
51146;SDS011;37207;53.060;18.726;2022-12-07T16:35:15;38.00;;;21.40;;
51146;SDS011;37207;53.060;18.726;2022-12-07T16:37:41;21.30;;;16.30;;
51146;SDS011;37207;53.060;18.726;2022-12-07T16:40:08;44.40;;;26.20;;
51146;SDS011;37207;53.060;18.726;2022-12-07T16:42:36;31.50;;;20.40;;
51146;SDS011;37207;53.060;18.726;2022-12-07T16:45:02;48.70;;;25.10;;
51146;SDS011;37207;53.060;18.726;2022-12-07T16:47:29;28.10;;;19.10;;
51146;SDS011;37207;53.060;18.726;2022-12-07T16:49:56;28.40;;;18.70;;
51146;SDS011;37207;53.060;18.726;2022-12-07T16:52:22;26.90;;;18.60;;
51146;SDS011;37207;53.060;18.726;2022-12-07T16:54:49;30.90;;;21.60;;
51146;SDS011;37207;53.060;18.726;2022-12-07T16:57:16;52.70;;;36.40;;
51146;SDS011;37207;53.060;18.726;2022-12-07T16:59:44;46.40;;;28.20;;